Time;durP1;ratioP1;P1;durP2;ratioP2;P2;SDS_P1;SDS_P2;PMS_P1;PMS_P2;Temp;Humidity;BMP_temperature;BMP_pressure;BME280_temperature;BME280_humidity;BME280_pressure;Samples;Min_cycle;Max_cycle;Signal;HPM_P1;HPM_P2
2022/12/24 00:01:24;;;;;;;31.83;4.10;;;10.80;99.90;;;;;;5053833;28;20123;-73
2022/12/24 00:03:50;;;;;;;31.90;4.57;;;10.80;99.90;;;;;;5053630;28;20041;-73
2022/12/24 00:06:18;;;;;;;41.40;5.60;;;10.80;99.90;;;;;;5054846;28;20025;-73
2022/12/24 00:08:44;;;;;;;30.70;4.60;;;10.80;99.90;;;;;;5054674;28;20053;-73
2022/12/24 00:11:09;;;;;;;34.22;4.20;;;10.80;99.90;;;;;;5037284;28;20029;-73
2022/12/24 00:13:36;;;;;;;36.33;5.05;;;10.80;99.90;;;;;;5053165;28;20136;-73
2022/12/24 00:16:02;;;;;;;37.33;5.22;;;10.90;99.90;;;;;;5053538;28;20115;-74
2022/12/24 00:18:28;;;;;;;34.88;4.57;;;10.90;99.90;;;;;;5053184;28;20047;-74
2022/12/24 00:20:54;;;;;;;33.08;4.53;;;10.90;99.90;;;;;;5037539;28;20033;-73
2022/12/24 00:23:19;;;;;;;31.67;4.90;;;10.80;99.90;;;;;;5020444;28;20406;-73
2022/12/24 00:25:45;;;;;;;34.60;4.45;;;10.80;99.90;;;;;;5054180;28;20029;-73
2022/12/24 00:28:12;;;;;;;40.53;4.80;;;10.80;99.90;;;;;;5053215;28;20151;-73
2022/12/24 00:30:39;;;;;;;37.03;5.75;;;10.80;99.90;;;;;;5054462;28;20107;-73
2022/12/24 00:33:05;;;;;;;35.85;4.82;;;10.80;99.90;;;;;;5054303;28;20032;-73
2022/12/24 00:35:33;;;;;;;40.00;5.18;;;10.80;99.90;;;;;;5054099;28;20028;-73
2022/12/24 00:37:59;;;;;;;37.88;4.85;;;10.80;99.90;;;;;;5053688;28;20029;-73
2022/12/24 00:40:24;;;;;;;39.60;6.15;;;10.80;99.90;;;;;;5052976;28;20040;-73
2022/12/24 00:42:50;;;;;;;39.03;5.30;;;10.80;99.90;;;;;;5052798;28;20059;-73
2022/12/24 00:45:16;;;;;;;31.63;4.72;;;10.80;99.90;;;;;;5052823;28;20151;-73
2022/12/24 00:47:42;;;;;;;42.17;5.95;;;10.80;99.90;;;;;;5054043;28;20029;-73
2022/12/24 00:50:08;;;;;;;43.63;5.07;;;10.70;99.90;;;;;;5052171;28;20033;-73
2022/12/24 00:52:33;;;;;;;37.53;4.90;;;10.70;99.90;;;;;;5036221;28;20115;-73
2022/12/24 00:54:59;;;;;;;31.35;4.78;;;10.70;99.90;;;;;;5054302;28;20039;-73
2022/12/24 00:57:25;;;;;;;39.85;5.00;;;10.70;99.90;;;;;;5053394;28;20418;-73
2022/12/24 00:59:50;;;;;;;41.55;6.47;;;10.70;99.90;;;;;;5053542;28;20033;-73
2022/12/24 01:02:16;;;;;;;40.88;5.82;;;10.70;99.90;;;;;;5052591;28;20033;-73
2022/12/24 01:07:25;;;;;;;35.25;5.22;;;10.70;99.90;;;;;;5053168;28;20051;-73
2022/12/24 01:09:51;;;;;;;41.92;4.75;;;10.70;99.90;;;;;;5053485;28;20057;-73
2022/12/24 01:12:17;;;;;;;42.33;5.47;;;10.70;99.90;;;;;;5052399;28;20076;-73
2022/12/24 01:14:42;;;;;;;39.75;5.03;;;10.70;99.90;;;;;;5035926;28;20461;-73
2022/12/24 01:17:09;;;;;;;37.42;5.57;;;10.70;99.90;;;;;;5053720;28;20435;-74
2022/12/24 01:19:35;;;;;;;39.33;5.05;;;10.70;99.90;;;;;;5053521;28;20041;-74
2022/12/24 01:22:01;;;;;;;37.08;5.15;;;10.70;99.90;;;;;;5053302;28;20029;-74
2022/12/24 01:24:27;;;;;;;43.03;5.65;;;10.70;99.90;;;;;;5053431;28;20036;-73
2022/12/24 01:26:52;;;;;;;34.42;5.13;;;10.70;99.90;;;;;;5051934;28;20037;-73
2022/12/24 01:29:18;;;;;;;40.35;5.47;;;10.70;99.90;;;;;;5053231;28;20033;-73
2022/12/24 01:31:44;;;;;;;42.10;5.97;;;10.70;99.90;;;;;;5052254;28;20025;-74
2022/12/24 01:34:10;;;;;;;41.90;5.38;;;10.60;99.90;;;;;;5053540;28;20457;-74
2022/12/24 01:36:35;;;;;;;39.42;5.40;;;10.60;99.90;;;;;;5035328;28;20029;-74
2022/12/24 01:39:01;;;;;;;42.55;5.32;;;10.60;99.90;;;;;;5052046;28;20040;-73
2022/12/24 01:44:33;;;;;;;41.20;5.13;;;10.60;99.90;;;;;;5011447;28;20026;-73
2022/12/24 01:47:12;;;;;;;46.47;6.28;;;10.60;99.90;;;;;;5045367;28;20033;-73
2022/12/24 01:49:43;;;;;;;32.17;4.95;;;10.60;99.90;;;;;;5052965;28;20108;-73
2022/12/24 01:52:19;;;;;;;40.33;6.10;;;10.60;99.90;;;;;;5053394;28;20469;-74
2022/12/24 01:54:56;;;;;;;42.13;6.43;;;10.60;99.90;;;;;;5053377;28;20051;-73
2022/12/24 01:57:26;;;;;;;41.25;5.07;;;10.60;99.90;;;;;;5052213;28;20032;-73
2022/12/24 01:59:56;;;;;;;34.38;4.78;;;10.50;99.90;;;;;;5054221;28;20053;-73
2022/12/24 02:02:22;;;;;;;49.22;6.78;;;10.60;99.90;;;;;;5057533;28;20104;-73
2022/12/24 02:05:06;;;;;;;36.90;4.55;;;10.50;99.90;;;;;;5039414;28;20033;-73
2022/12/24 02:07:33;;;;;;;41.33;5.88;;;10.60;99.90;;;;;;5056212;28;20032;-73
2022/12/24 02:10:00;;;;;;;42.03;5.30;;;10.50;99.90;;;;;;5055783;28;20048;-74
2022/12/24 02:12:29;;;;;;;35.80;4.53;;;10.50;99.90;;;;;;5055633;28;20029;-73
2022/12/24 02:14:55;;;;;;;47.08;6.00;;;10.50;99.90;;;;;;5056571;28;20466;-73
2022/12/24 02:17:52;;;;;;;41.63;5.38;;;10.50;99.90;;;;;;5039307;28;20083;-73
2022/12/24 02:20:48;;;;;;;36.78;4.93;;;10.50;99.90;;;;;;5055579;28;20033;-73
2022/12/24 02:23:23;;;;;;;39.47;4.32;;;10.50;99.90;;;;;;5055550;28;20025;-73
2022/12/24 02:26:13;;;;;;;29.77;4.25;;;10.50;99.90;;;;;;5055464;28;20044;-73
2022/12/24 02:29:06;;;;;;;43.70;5.05;;;10.50;99.90;;;;;;5056796;28;20115;-73
2022/12/24 02:31:42;;;;;;;44.80;5.68;;;10.50;99.90;;;;;;5055710;28;20488;-73
2022/12/24 02:34:47;;;;;;;50.58;5.15;;;10.50;99.90;;;;;;5056579;28;20504;-74
2022/12/24 02:37:31;;;;;;;37.80;5.60;;;10.40;99.90;;;;;;5056527;28;20108;-74
2022/12/24 02:40:09;;;;;;;39.17;4.45;;;10.30;99.90;;;;;;5055512;28;20136;-73
2022/12/24 02:42:39;;;;;;;31.60;5.35;;;10.30;99.90;;;;;;5056739;28;20029;-73
2022/12/24 02:45:10;;;;;;;38.60;4.95;;;10.30;99.90;;;;;;5056694;28;20035;-72
2022/12/24 02:47:38;;;;;;;41.28;5.53;;;10.30;99.90;;;;;;5055367;28;20638;-73
2022/12/24 02:50:06;;;;;;;34.33;5.63;;;10.30;99.90;;;;;;5056345;28;20377;-72
2022/12/24 02:52:41;;;;;;;63.28;23.02;;;10.20;99.90;;;;;;5056276;28;20036;-72
2022/12/24 02:55:10;;;;;;;41.95;7.00;;;10.20;99.90;;;;;;5056532;28;20048;-72
2022/12/24 02:57:58;;;;;;;33.92;4.15;;;10.20;99.90;;;;;;5056128;28;20029;-73
2022/12/24 03:00:25;;;;;;;30.30;4.15;;;10.20;99.90;;;;;;5055845;28;20073;-73
2022/12/24 03:03:10;;;;;;;40.90;5.63;;;10.20;99.90;;;;;;5056072;28;20525;-72
2022/12/24 03:05:55;;;;;;;33.72;4.43;;;10.20;99.90;;;;;;5055666;28;20055;-72
2022/12/24 03:08:27;;;;;;;30.27;4.57;;;10.20;99.90;;;;;;5056096;28;20033;-72
2022/12/24 03:11:01;;;;;;;39.47;4.65;;;10.10;99.90;;;;;;5035856;28;20045;-73
2022/12/24 03:13:28;;;;;;;33.70;4.93;;;10.10;99.90;;;;;;5035395;28;20036;-72
2022/12/24 03:15:54;;;;;;;26.83;4.90;;;10.10;99.90;;;;;;5035964;28;20108;-74
2022/12/24 03:18:25;;;;;;;31.17;5.07;;;10.10;99.90;;;;;;5035837;28;20029;-73
2022/12/24 03:21:05;;;;;;;41.75;5.55;;;10.10;99.90;;;;;;5018113;28;20382;-73
2022/12/24 03:23:32;;;;;;;30.92;4.80;;;10.10;99.90;;;;;;5035868;28;20033;-73
2022/12/24 03:26:00;;;;;;;37.90;5.47;;;10.10;99.90;;;;;;5035034;28;20029;-73
2022/12/24 03:28:27;;;;;;;39.92;4.40;;;10.10;99.90;;;;;;5035963;28;20034;-72
2022/12/24 03:30:53;;;;;;;31.48;4.10;;;10.10;99.90;;;;;;5035367;28;20470;-72
2022/12/24 03:33:20;;;;;;;32.13;4.00;;;10.10;99.90;;;;;;5017938;28;20051;-73
2022/12/24 03:35:46;;;;;;;36.30;4.85;;;10.10;99.90;;;;;;5035111;28;20386;-72
2022/12/24 03:38:12;;;;;;;37.38;4.35;;;10.10;99.90;;;;;;5035964;28;20026;-72
2022/12/24 03:40:37;;;;;;;32.60;5.35;;;10.10;99.90;;;;;;5034399;28;20036;-72
2022/12/24 03:43:03;;;;;;;37.42;5.20;;;10.10;99.90;;;;;;5017740;28;20038;-72
2022/12/24 03:45:29;;;;;;;42.20;4.25;;;10.20;99.90;;;;;;5035699;28;20083;-73
2022/12/24 03:47:54;;;;;;;41.75;4.88;;;10.10;99.90;;;;;;5034187;28;20026;-72
2022/12/24 03:50:20;;;;;;;39.30;4.55;;;10.10;99.90;;;;;;5034055;28;20450;-72
2022/12/24 03:52:46;;;;;;;39.15;4.82;;;10.10;99.90;;;;;;5034952;28;20026;-72
2022/12/24 03:55:11;;;;;;;31.10;4.38;;;10.10;99.90;;;;;;5035240;28;20420;-72
2022/12/24 03:57:37;;;;;;;31.48;3.85;;;10.20;99.90;;;;;;5017405;28;20030;-72
2022/12/24 04:00:04;;;;;;;40.95;5.70;;;10.20;99.90;;;;;;5017363;28;20087;-73
2022/12/24 04:02:30;;;;;;;44.78;5.40;;;10.20;99.90;;;;;;5035060;28;20025;-73
2022/12/24 04:04:56;;;;;;;44.38;6.45;;;10.20;99.90;;;;;;5034945;28;20481;-73
2022/12/24 04:07:22;;;;;;;53.17;5.80;;;10.20;99.90;;;;;;5034597;28;20075;-73
2022/12/24 04:09:48;;;;;;;49.30;6.18;;;10.20;99.90;;;;;;5046571;28;20081;-73
2022/12/24 04:12:13;;;;;;;42.08;5.25;;;10.20;99.90;;;;;;5037044;28;20026;-73
2022/12/24 04:14:39;;;;;;;39.45;5.53;;;10.20;99.90;;;;;;5054704;28;20033;-73
2022/12/24 04:17:05;;;;;;;36.55;5.45;;;10.20;99.90;;;;;;5036990;28;20059;-73
2022/12/24 04:19:30;;;;;;;40.83;6.55;;;10.30;99.90;;;;;;5037134;28;20045;-73
2022/12/24 04:21:56;;;;;;;38.42;5.63;;;10.30;99.90;;;;;;5053001;28;20029;-73
2022/12/24 04:24:22;;;;;;;39.58;5.72;;;10.30;99.90;;;;;;5054102;28;20151;-73
2022/12/24 04:26:47;;;;;;;38.60;5.50;;;10.30;99.90;;;;;;5053142;28;20033;-73
2022/12/24 04:29:13;;;;;;;45.50;6.97;;;10.30;99.90;;;;;;5053029;28;20044;-74
2022/12/24 04:31:39;;;;;;;42.17;5.53;;;10.40;99.90;;;;;;5054372;28;20108;-73
2022/12/24 04:34:04;;;;;;;48.33;7.78;;;10.40;99.90;;;;;;5036249;28;20132;-73
2022/12/24 04:36:30;;;;;;;41.80;5.85;;;10.40;99.90;;;;;;5054500;28;20036;-73
2022/12/24 04:38:56;;;;;;;39.67;5.93;;;10.40;99.90;;;;;;5052881;28;20037;-74
2022/12/24 04:41:22;;;;;;;37.35;5.72;;;10.40;99.90;;;;;;5020435;28;20086;-74
2022/12/24 04:43:49;;;;;;;42.70;6.60;;;10.50;99.90;;;;;;5052766;28;20358;-74
2022/12/24 04:46:20;;;;;;;46.05;6.13;;;10.50;99.90;;;;;;5054263;28;20061;-74
2022/12/24 04:48:47;;;;;;;39.10;6.28;;;10.50;99.90;;;;;;5054443;28;20111;-74
2022/12/24 04:51:13;;;;;;;32.30;5.82;;;10.50;99.90;;;;;;5054378;28;20051;-74
2022/12/24 04:53:40;;;;;;;45.92;6.65;;;10.50;99.90;;;;;;5052735;28;20355;-74
2022/12/24 04:56:20;;;;;;;44.83;8.23;;;10.50;99.90;;;;;;5053673;28;20392;-74
2022/12/24 04:58:46;;;;;;;49.70;6.18;;;10.60;99.90;;;;;;5053748;28;20064;-74
2022/12/24 05:01:14;;;;;;;41.33;6.78;;;10.60;99.90;;;;;;5052630;28;20033;-74
2022/12/24 05:03:40;;;;;;;35.63;5.88;;;10.60;99.90;;;;;;5053621;28;20118;-74
2022/12/24 05:06:09;;;;;;;40.40;6.18;;;10.60;99.90;;;;;;5052709;28;20033;-74
2022/12/24 05:08:35;;;;;;;49.30;7.75;;;10.60;99.90;;;;;;5053641;28;20059;-74
2022/12/24 05:11:01;;;;;;;43.28;6.53;;;10.60;99.90;;;;;;5052990;28;20474;-74
2022/12/24 05:13:28;;;;;;;36.53;6.10;;;10.60;99.90;;;;;;5052491;28;20047;-74
2022/12/24 05:15:54;;;;;;;43.75;6.28;;;10.60;99.90;;;;;;5054018;28;20029;-74
2022/12/24 05:18:20;;;;;;;35.30;4.95;;;10.60;99.90;;;;;;5053368;28;20029;-74
2022/12/24 05:20:46;;;;;;;43.35;6.25;;;10.60;99.90;;;;;;5052522;28;20047;-73
2022/12/24 05:26:27;;;;;;;36.70;5.28;;;10.70;99.90;;;;;;5053360;28;20060;-74
2022/12/24 05:28:55;;;;;;;40.08;5.68;;;10.70;99.90;;;;;;5053636;28;20048;-73
2022/12/24 05:31:23;;;;;;;47.10;6.05;;;10.70;99.90;;;;;;5053852;28;20032;-73
2022/12/24 05:33:49;;;;;;;51.20;7.15;;;10.70;99.90;;;;;;5052201;28;20029;-74
2022/12/24 05:36:15;;;;;;;40.63;5.35;;;10.70;99.90;;;;;;5052067;28;20432;-73
2022/12/24 05:38:41;;;;;;;44.63;5.72;;;10.70;99.90;;;;;;5053683;28;20108;-74
2022/12/24 05:41:08;;;;;;;42.22;6.25;;;10.70;99.90;;;;;;5052330;28;20041;-73
2022/12/24 05:43:35;;;;;;;41.63;6.47;;;10.70;99.90;;;;;;5052722;28;20063;-73
2022/12/24 05:46:03;;;;;;;42.55;6.55;;;10.70;99.90;;;;;;5052157;28;20461;-74
2022/12/24 05:48:29;;;;;;;42.35;6.55;;;10.70;99.90;;;;;;5053422;28;20033;-73
2022/12/24 05:50:55;;;;;;;34.85;6.25;;;10.70;99.90;;;;;;5053410;28;20036;-74
2022/12/24 05:53:21;;;;;;;48.50;6.80;;;10.70;99.90;;;;;;5052312;28;20029;-73
2022/12/24 05:55:47;;;;;;;44.88;6.53;;;10.70;99.90;;;;;;5053260;28;20052;-75
2022/12/24 05:58:13;;;;;;;49.97;7.57;;;10.70;99.90;;;;;;5051998;28;20025;-75
2022/12/24 06:00:39;;;;;;;42.80;5.85;;;10.70;99.90;;;;;;5052301;28;20592;-74
2022/12/24 06:03:05;;;;;;;42.90;6.68;;;10.70;99.90;;;;;;5053244;28;20128;-74
2022/12/24 06:05:30;;;;;;;50.22;8.68;;;10.70;99.90;;;;;;5051952;28;20029;-74
2022/12/24 06:07:56;;;;;;;49.67;6.63;;;10.70;99.90;;;;;;5053226;28;20036;-73
2022/12/24 06:10:22;;;;;;;41.38;5.90;;;10.70;99.90;;;;;;5052894;28;20116;-73
2022/12/24 06:12:48;;;;;;;35.67;6.07;;;10.80;99.90;;;;;;5051955;28;20025;-74
2022/12/24 06:15:13;;;;;;;44.65;6.32;;;10.80;99.90;;;;;;5051838;28;20036;-74
2022/12/24 06:17:39;;;;;;;43.70;6.03;;;10.80;99.90;;;;;;5053192;28;20136;-74
2022/12/24 06:20:05;;;;;;;41.03;6.35;;;10.80;99.90;;;;;;5053030;28;20398;-73
2022/12/24 06:22:31;;;;;;;50.08;6.95;;;10.80;99.90;;;;;;5053058;28;20035;-74
2022/12/24 06:24:57;;;;;;;46.00;5.93;;;10.80;99.90;;;;;;5052604;28;20119;-73
2022/12/24 06:27:22;;;;;;;51.63;7.47;;;10.80;99.90;;;;;;5052671;28;20393;-74
2022/12/24 06:29:48;;;;;;;47.00;6.38;;;10.80;99.90;;;;;;5035301;28;20396;-74
2022/12/24 06:32:14;;;;;;;40.70;6.63;;;10.80;99.90;;;;;;5052779;28;20028;-74
2022/12/24 06:34:39;;;;;;;30.52;5.07;;;10.90;99.90;;;;;;5052984;28;20436;-74
2022/12/24 06:37:05;;;;;;;42.92;6.78;;;10.80;99.90;;;;;;5052927;28;20033;-74
2022/12/24 06:39:31;;;;;;;38.78;5.72;;;10.80;99.90;;;;;;5051903;28;20048;-73
2022/12/24 06:41:56;;;;;;;46.55;6.80;;;10.90;99.90;;;;;;5051694;28;20028;-74
2022/12/24 06:44:22;;;;;;;44.83;6.25;;;10.90;99.90;;;;;;5052784;28;20377;-74
2022/12/24 06:46:48;;;;;;;41.30;6.90;;;10.90;99.90;;;;;;5052646;28;20147;-74
2022/12/24 06:49:13;;;;;;;42.38;6.70;;;10.80;99.90;;;;;;5055097;28;20029;-74
2022/12/24 06:51:39;;;;;;;38.47;6.13;;;10.90;99.90;;;;;;5055217;28;20033;-74
2022/12/24 06:54:05;;;;;;;49.65;6.43;;;10.80;99.90;;;;;;5056440;28;20123;-74
2022/12/24 06:56:30;;;;;;;42.83;6.30;;;10.90;99.90;;;;;;5055282;28;20390;-74
2022/12/24 06:58:56;;;;;;;41.90;6.57;;;10.90;99.90;;;;;;5056103;28;20488;-74
2022/12/24 07:01:23;;;;;;;41.45;6.47;;;11.00;99.90;;;;;;5056418;28;20509;-75
2022/12/24 07:03:49;;;;;;;47.30;6.78;;;10.90;99.90;;;;;;5054808;28;20033;-75
2022/12/24 07:06:23;;;;;;;40.85;6.63;;;11.00;99.90;;;;;;5056317;28;20063;-73
2022/12/24 07:08:49;;;;;;;37.88;6.70;;;11.00;99.90;;;;;;5055797;28;20055;-75
2022/12/24 07:11:15;;;;;;;43.47;7.13;;;11.00;99.90;;;;;;5056355;28;20493;-75
2022/12/24 07:13:40;;;;;;;41.95;8.00;;;11.00;99.90;;;;;;5055953;28;20025;-75
2022/12/24 07:16:06;;;;;;;52.97;8.10;;;11.00;99.90;;;;;;5055072;28;20416;-73
2022/12/24 07:18:32;;;;;;;42.85;7.00;;;11.00;99.90;;;;;;5054631;28;20041;-74
2022/12/24 07:20:58;;;;;;;49.53;8.13;;;11.00;99.90;;;;;;5056269;28;20479;-74
2022/12/24 07:23:24;;;;;;;59.15;9.43;;;11.00;99.90;;;;;;5055600;28;20104;-74
2022/12/24 07:25:49;;;;;;;42.97;7.30;;;11.00;99.90;;;;;;5054940;28;20468;-75
2022/12/24 07:28:15;;;;;;;43.78;7.50;;;11.00;99.90;;;;;;5056115;28;20033;-74
2022/12/24 07:30:41;;;;;;;56.15;8.00;;;11.00;99.90;;;;;;5055425;28;20502;-75
2022/12/24 07:33:07;;;;;;;45.67;7.30;;;11.00;99.90;;;;;;5037338;28;20170;-75
2022/12/24 07:35:33;;;;;;;42.45;7.10;;;11.00;99.90;;;;;;5055488;28;20021;-75
2022/12/24 07:37:58;;;;;;;37.92;6.72;;;11.00;99.90;;;;;;5038203;28;20127;-74
2022/12/24 07:40:24;;;;;;;44.63;7.15;;;11.00;99.90;;;;;;5055021;28;20437;-74
2022/12/24 07:42:50;;;;;;;51.70;7.22;;;11.10;99.90;;;;;;5055248;28;20509;-74
2022/12/24 07:45:15;;;;;;;43.42;7.22;;;11.00;99.90;;;;;;5055016;28;20420;-74
2022/12/24 07:47:41;;;;;;;48.80;6.93;;;11.00;99.90;;;;;;5037363;28;20496;-74
2022/12/24 07:50:07;;;;;;;34.70;6.45;;;11.00;99.90;;;;;;5055335;28;20040;-74
2022/12/24 07:52:33;;;;;;;39.53;7.00;;;11.00;99.90;;;;;;5037434;28;20033;-74
2022/12/24 07:54:59;;;;;;;44.80;6.55;;;11.00;99.90;;;;;;5038027;28;20044;-74
2022/12/24 07:57:24;;;;;;;36.88;6.53;;;11.10;99.90;;;;;;5053020;28;20029;-74
2022/12/24 07:59:50;;;;;;;42.28;6.15;;;11.00;99.90;;;;;;5054406;28;20033;-74
2022/12/24 08:02:15;;;;;;;36.67;6.03;;;11.00;99.90;;;;;;5053861;28;20060;-75
2022/12/24 08:04:41;;;;;;;37.75;6.55;;;11.10;99.90;;;;;;5055331;28;20430;-74
2022/12/24 08:07:07;;;;;;;40.55;6.13;;;11.10;99.90;;;;;;5054969;28;20025;-75
2022/12/24 08:09:34;;;;;;;36.80;5.75;;;11.10;99.90;;;;;;5054346;28;20048;-75
2022/12/24 08:12:01;;;;;;;45.33;6.43;;;11.00;99.90;;;;;;5054563;28;20041;-74
2022/12/24 08:14:28;;;;;;;39.95;6.05;;;11.10;99.90;;;;;;5053326;28;20461;-76
2022/12/24 08:16:53;;;;;;;38.00;6.25;;;11.00;99.90;;;;;;5037469;28;20029;-75
2022/12/24 08:19:19;;;;;;;48.40;7.97;;;11.00;99.90;;;;;;5053168;28;20469;-75
2022/12/24 08:21:45;;;;;;;40.80;5.72;;;11.00;99.90;;;;;;5054284;28;20465;-75
2022/12/24 08:24:10;;;;;;;37.40;6.38;;;11.00;99.90;;;;;;5054853;28;20029;-74
2022/12/24 08:26:36;;;;;;;32.63;6.32;;;11.00;99.90;;;;;;5037169;28;20497;-74
2022/12/24 08:29:03;;;;;;;35.72;6.20;;;11.10;99.90;;;;;;5053143;28;20381;-75
2022/12/24 08:31:29;;;;;;;38.53;6.32;;;11.00;99.90;;;;;;5053376;28;20040;-74
2022/12/24 08:33:55;;;;;;;41.80;5.40;;;11.00;99.90;;;;;;5054399;28;20033;-75
2022/12/24 08:36:20;;;;;;;40.67;5.97;;;11.00;99.90;;;;;;5054291;28;20041;-74
2022/12/24 08:38:46;;;;;;;37.47;5.97;;;11.00;99.90;;;;;;5054215;28;20119;-74
2022/12/24 08:41:12;;;;;;;36.05;6.05;;;11.00;99.90;;;;;;5054139;28;20127;-74
2022/12/24 08:43:37;;;;;;;36.92;6.32;;;11.00;99.90;;;;;;5054256;28;20483;-75
2022/12/24 08:46:05;;;;;;;37.00;6.65;;;11.00;99.90;;;;;;5036472;28;20043;-80
2022/12/24 08:48:32;;;;;;;41.92;6.95;;;11.00;99.90;;;;;;5036675;28;20029;-78
2022/12/24 08:50:57;;;;;;;40.63;7.10;;;11.00;99.90;;;;;;5037429;28;20051;-79
2022/12/24 08:53:24;;;;;;;37.00;5.85;;;11.00;99.90;;;;;;5036202;28;20107;-79
2022/12/24 08:55:49;;;;;;;53.67;8.07;;;11.00;99.90;;;;;;5052621;28;20029;-78
2022/12/24 08:58:15;;;;;;;34.83;5.90;;;11.00;99.90;;;;;;5054125;28;20075;-79
2022/12/24 09:00:40;;;;;;;41.85;6.53;;;11.10;99.90;;;;;;5036024;28;20466;-80
2022/12/24 09:03:06;;;;;;;45.15;6.85;;;11.00;99.90;;;;;;5036051;28;20040;-79
2022/12/24 09:05:32;;;;;;;40.58;6.25;;;11.10;99.90;;;;;;5052690;28;20092;-78
2022/12/24 09:07:57;;;;;;;36.28;5.68;;;11.10;99.90;;;;;;5036341;28;20029;-78
2022/12/24 09:10:23;;;;;;;46.80;8.07;;;11.10;99.90;;;;;;5051941;28;20060;-79
2022/12/24 09:12:50;;;;;;;48.60;6.85;;;11.20;99.90;;;;;;5052470;28;20118;-80
2022/12/24 09:15:15;;;;;;;43.28;7.15;;;11.20;99.90;;;;;;5053796;28;20029;-79
2022/12/24 09:17:41;;;;;;;39.13;7.53;;;11.20;99.90;;;;;;5053773;28;20021;-79
2022/12/24 09:20:08;;;;;;;48.55;7.00;;;11.10;99.90;;;;;;5058584;28;20029;-80
2022/12/24 09:22:36;;;;;;;55.08;8.30;;;11.20;99.90;;;;;;5054033;28;20028;-80
2022/12/24 09:25:03;;;;;;;52.28;8.32;;;11.20;99.90;;;;;;5053572;28;20021;-79
2022/12/24 09:27:30;;;;;;;48.95;8.75;;;11.20;99.90;;;;;;5053718;28;20039;-78
2022/12/24 09:29:56;;;;;;;35.38;6.93;;;11.20;99.90;;;;;;5053525;28;20522;-78
2022/12/24 09:32:21;;;;;;;44.88;7.93;;;11.20;99.90;;;;;;5052620;28;20037;-78
2022/12/24 09:34:47;;;;;;;48.08;7.65;;;11.20;99.90;;;;;;5052453;28;20377;-78
2022/12/24 09:37:13;;;;;;;37.47;7.10;;;11.20;99.90;;;;;;5035679;28;20029;-78
2022/12/24 09:39:39;;;;;;;48.55;9.13;;;11.20;99.90;;;;;;5053587;28;20029;-78
2022/12/24 09:42:21;;;;;;;42.17;7.55;;;11.20;99.90;;;;;;5052484;28;20527;-78
2022/12/24 09:45:04;;;;;;;40.33;8.52;;;11.20;99.90;;;;;;5052307;28;20517;-78
2022/12/24 09:47:50;;;;;;;46.05;7.75;;;11.20;99.90;;;;;;5051903;28;20037;-78
2022/12/24 09:50:36;;;;;;;38.83;8.23;;;11.30;99.90;;;;;;5052402;28;20030;-79
2022/12/24 09:53:11;;;;;;;36.25;6.65;;;11.20;99.90;;;;;;5052710;28;20135;-78
2022/12/24 09:55:44;;;;;;;41.45;7.22;;;11.30;99.90;;;;;;5052485;28;20025;-77
2022/12/24 09:58:28;;;;;;;45.05;7.25;;;11.30;99.90;;;;;;5053365;28;20029;-78
2022/12/24 10:00:55;;;;;;;45.70;7.32;;;11.30;99.90;;;;;;5053317;28;20158;-80
2022/12/24 10:03:21;;;;;;;37.25;6.47;;;11.30;99.90;;;;;;5052837;28;20029;-79
2022/12/24 10:06:39;;;;;;;39.20;6.63;;;11.30;99.90;;;;;;5035326;28;20171;-78
2022/12/24 10:09:19;;;;;;;32.67;6.18;;;11.40;99.90;;;;;;4974551;28;20077;-79
2022/12/24 10:11:53;;;;;;;49.85;8.50;;;11.40;99.90;;;;;;5042833;28;20056;-77
2022/12/24 10:14:41;;;;;;;44.78;6.80;;;11.40;99.90;;;;;;5055222;28;20036;-78
2022/12/24 10:17:20;;;;;;;40.10;7.35;;;11.40;99.90;;;;;;5055080;28;20027;-77
2022/12/24 10:19:54;;;;;;;43.33;7.03;;;11.40;99.90;;;;;;5052913;28;20037;-78
2022/12/24 10:23:00;;;;;;;41.55;6.32;;;11.40;99.90;;;;;;5055546;28;20029;-77
2022/12/24 10:25:45;;;;;;;42.63;7.35;;;11.40;99.90;;;;;;5047822;28;20106;-78
2022/12/24 10:28:15;;;;;;;39.15;7.68;;;11.40;99.90;;;;;;5055972;28;20230;-79
2022/12/24 10:30:43;;;;;;;42.58;6.47;;;11.40;99.90;;;;;;5054734;28;20124;-78
2022/12/24 10:33:24;;;;;;;38.88;6.45;;;11.40;99.90;;;;;;5038072;28;20037;-77
2022/12/24 10:35:54;;;;;;;37.28;6.25;;;11.40;99.90;;;;;;5055095;28;20093;-78
2022/12/24 10:38:20;;;;;;;44.75;6.68;;;11.40;99.90;;;;;;5054995;28;20027;-78
2022/12/24 10:40:49;;;;;;;40.15;6.70;;;11.40;99.90;;;;;;5055528;28;20496;-78
2022/12/24 10:43:23;;;;;;;38.20;6.53;;;11.40;99.90;;;;;;5055301;28;20029;-78
2022/12/24 10:46:04;;;;;;;45.05;6.32;;;11.50;99.90;;;;;;5055470;28;20037;-78
2022/12/24 10:49:00;;;;;;;31.50;5.38;;;11.50;99.90;;;;;;5056072;28;20060;-78
2022/12/24 10:51:44;;;;;;;37.78;6.03;;;11.60;99.90;;;;;;5053499;28;20182;-78
2022/12/24 10:54:14;;;;;;;40.47;7.57;;;11.70;99.90;;;;;;5054891;28;20029;-78
2022/12/24 10:56:45;;;;;;;32.55;5.28;;;11.70;99.90;;;;;;5055654;28;20060;-76
2022/12/24 10:59:29;;;;;;;36.60;5.50;;;11.80;99.90;;;;;;5055468;28;20128;-74
2022/12/24 11:01:57;;;;;;;44.65;7.60;;;11.80;99.90;;;;;;5054024;28;20090;-73
2022/12/24 11:04:27;;;;;;;34.75;5.57;;;11.80;99.90;;;;;;5055453;28;20108;-73
2022/12/24 11:07:04;;;;;;;41.80;6.07;;;11.80;99.90;;;;;;5055532;28;20032;-74
2022/12/24 11:09:39;;;;;;;39.40;6.05;;;11.80;99.90;;;;;;5053934;28;20443;-73
2022/12/24 11:12:17;;;;;;;39.08;6.18;;;11.80;99.90;;;;;;5054103;28;20524;-74
2022/12/24 11:14:44;;;;;;;42.22;5.53;;;11.80;99.90;;;;;;5054309;28;20071;-74
2022/12/24 11:17:20;;;;;;;37.33;5.82;;;11.80;99.90;;;;;;5053719;28;20025;-74
2022/12/24 11:19:48;;;;;;;35.05;6.03;;;11.80;99.90;;;;;;5055100;28;20052;-73
2022/12/24 11:22:23;;;;;;;36.55;5.47;;;11.80;99.90;;;;;;5053747;28;20032;-73
2022/12/24 11:25:06;;;;;;;28.85;5.05;;;11.90;99.90;;;;;;5054737;28;20036;-75
2022/12/24 11:27:46;;;;;;;40.47;4.95;;;11.90;99.90;;;;;;5054887;28;20025;-75
2022/12/24 11:30:14;;;;;;;41.00;5.70;;;11.90;99.90;;;;;;5054971;28;20032;-75
2022/12/24 11:32:41;;;;;;;35.00;5.18;;;12.00;99.90;;;;;;5052390;28;20036;-77
2022/12/24 11:35:14;;;;;;;25.52;4.10;;;12.00;99.90;;;;;;5054907;28;20032;-77
2022/12/24 11:37:40;;;;;;;29.08;4.85;;;11.90;99.90;;;;;;5053995;28;20026;-77
2022/12/24 11:40:22;;;;;;;36.90;5.13;;;12.00;99.90;;;;;;5053323;28;20055;-77
2022/12/24 11:42:52;;;;;;;33.30;6.05;;;12.00;99.90;;;;;;5055145;28;20029;-77
2022/12/24 11:45:24;;;;;;;29.80;4.78;;;12.00;99.90;;;;;;5038436;28;20025;-77
2022/12/24 11:47:52;;;;;;;34.90;5.47;;;12.00;99.90;;;;;;5053683;28;20434;-78
2022/12/24 11:50:30;;;;;;;32.80;4.45;;;11.90;99.90;;;;;;5053774;28;20060;-77
2022/12/24 11:53:10;;;;;;;32.42;4.82;;;12.00;99.90;;;;;;5054046;28;20025;-78
2022/12/24 11:55:40;;;;;;;35.08;5.05;;;12.00;99.90;;;;;;5054215;28;20480;-77
2022/12/24 11:58:36;;;;;;;28.88;6.45;;;12.00;99.90;;;;;;5054892;28;20021;-77
2022/12/24 12:01:23;;;;;;;34.17;6.00;;;12.00;99.90;;;;;;5054585;28;20040;-77
2022/12/24 12:04:14;;;;;;;31.77;4.50;;;12.10;99.90;;;;;;5053395;28;20025;-78
2022/12/24 12:06:50;;;;;;;35.42;4.82;;;12.10;99.90;;;;;;5053755;28;20021;-77
2022/12/24 12:09:35;;;;;;;30.90;4.47;;;12.10;99.90;;;;;;5053805;28;20160;-77
2022/12/24 12:12:24;;;;;;;40.60;5.07;;;12.20;99.90;;;;;;5052344;28;20025;-78
2022/12/24 12:14:59;;;;;;;30.90;4.60;;;12.20;99.90;;;;;;5053280;28;20361;-77
2022/12/24 12:17:43;;;;;;;32.08;4.22;;;12.10;99.90;;;;;;5052769;28;20105;-77
2022/12/24 12:20:17;;;;;;;28.15;5.05;;;12.10;99.90;;;;;;5052371;28;20057;-77
2022/12/24 12:23:03;;;;;;;33.78;4.55;;;12.00;99.90;;;;;;5052819;28;20025;-77
2022/12/24 12:25:40;;;;;;;35.50;4.75;;;12.00;99.90;;;;;;5051828;28;20132;-78
2022/12/24 12:28:16;;;;;;;29.80;4.68;;;12.00;99.90;;;;;;5052939;28;20492;-77
2022/12/24 12:30:43;;;;;;;32.05;4.10;;;12.00;99.90;;;;;;5054014;28;20060;-77
2022/12/24 12:33:12;;;;;;;34.45;4.10;;;12.00;99.90;;;;;;5052563;28;20123;-77
2022/12/24 12:35:41;;;;;;;27.20;3.70;;;11.90;99.90;;;;;;5052322;28;20021;-78
2022/12/24 12:38:20;;;;;;;31.58;4.43;;;12.00;99.90;;;;;;5052543;28;20155;-77
2022/12/24 12:40:46;;;;;;;25.75;4.10;;;11.90;99.90;;;;;;5052962;28;20132;-77
2022/12/24 12:43:35;;;;;;;32.67;3.95;;;11.90;99.90;;;;;;5053895;28;20074;-80
2022/12/24 12:46:35;;;;;;;25.90;3.97;;;11.80;99.90;;;;;;5043285;28;20063;-77
2022/12/24 12:49:07;;;;;;;30.63;4.15;;;11.80;99.90;;;;;;5026414;28;20033;-79
2022/12/24 12:51:41;;;;;;;28.20;3.28;;;11.80;99.90;;;;;;5052387;28;20029;-78
2022/12/24 12:54:36;;;;;;;28.67;3.38;;;11.80;99.90;;;;;;5053699;28;20025;-78
2022/12/24 12:57:10;;;;;;;26.88;4.05;;;11.70;99.90;;;;;;5052270;28;20021;-74
2022/12/24 12:59:50;;;;;;;25.42;3.60;;;11.70;99.90;;;;;;5053517;28;20037;-74